createdAt,value
2018-11-14T00:03:30.636Z,7.33
2018-11-14T00:07:34.129Z,7.50
2018-11-14T00:11:37.661Z,8.03
2018-11-14T00:15:41.142Z,7.90
2018-11-14T00:19:44.595Z,7.90
2018-11-14T00:23:48.318Z,7.40
2018-11-14T00:27:51.825Z,7.60
2018-11-14T00:31:55.246Z,8.07
2018-11-14T00:35:59.022Z,8.07
2018-11-14T00:40:02.506Z,7.50
2018-11-14T00:44:06.072Z,7.53
2018-11-14T00:48:15.935Z,8.03
2018-11-14T00:52:19.416Z,7.57
2018-11-14T00:56:22.895Z,7.70
2018-11-14T01:00:26.610Z,7.67
2018-11-14T01:04:30.117Z,7.17
2018-11-14T01:08:33.627Z,7.50
2018-11-14T01:12:37.095Z,7.93
2018-11-14T01:16:40.588Z,7.87
2018-11-14T01:20:44.073Z,7.83
2018-11-14T01:24:47.551Z,7.57
2018-11-14T01:28:51.019Z,7.40
2018-11-14T01:32:55.033Z,7.63
2018-11-14T01:36:58.557Z,7.50
2018-11-14T01:41:02.130Z,7.70
2018-11-14T01:45:08.258Z,6.37
2018-11-14T01:49:11.805Z,6.33
2018-11-14T01:53:15.448Z,6.60
2018-11-14T01:57:18.904Z,6.00
2018-11-14T02:01:22.409Z,5.70
2018-11-14T02:05:25.914Z,5.80
2018-11-14T02:09:29.486Z,6.07
2018-11-14T02:13:32.930Z,6.27
2018-11-14T02:17:36.728Z,6.00
2018-11-14T02:21:40.207Z,6.07
2018-11-14T02:25:43.754Z,6.90
2018-11-14T02:29:47.260Z,6.43
2018-11-14T02:33:50.734Z,6.70
2018-11-14T02:37:54.212Z,6.03
2018-11-14T02:41:57.671Z,6.40
2018-11-14T02:46:01.233Z,6.73
2018-11-14T02:50:04.987Z,5.63
2018-11-14T02:54:08.483Z,5.73
2018-11-14T02:58:11.979Z,5.60
2018-11-14T03:02:15.471Z,5.50
2018-11-14T03:06:18.922Z,5.40
2018-11-14T03:10:22.578Z,5.37
2018-11-14T03:14:26.091Z,5.23
2018-11-14T03:18:29.605Z,4.73
2018-11-14T03:22:33.083Z,4.73
2018-11-14T03:26:36.766Z,4.43
2018-11-14T03:30:40.202Z,4.37
2018-11-14T03:34:43.691Z,4.30
2018-11-14T03:38:47.452Z,4.50
2018-11-14T03:42:50.926Z,4.57
2018-11-14T03:46:54.413Z,5.07
2018-11-14T03:50:57.912Z,4.53
2018-11-14T03:55:01.735Z,4.77
2018-11-14T03:59:05.335Z,4.47
2018-11-14T04:03:09.061Z,4.57
2018-11-14T04:07:12.676Z,4.60
2018-11-14T04:11:16.427Z,4.73
2018-11-14T04:15:19.908Z,4.23
2018-11-14T04:19:23.397Z,4.30
2018-11-14T04:23:26.914Z,4.40
2018-11-14T04:27:30.371Z,4.93
2018-11-14T04:31:33.865Z,4.60
2018-11-14T04:35:37.350Z,4.20
2018-11-14T04:39:40.869Z,4.20
2018-11-14T04:43:44.392Z,4.50
2018-11-14T04:47:47.930Z,4.50
2018-11-14T04:51:51.386Z,3.73
2018-11-14T04:55:55.115Z,4.30
2018-11-14T04:59:58.580Z,4.27
2018-11-14T05:04:02.051Z,5.03
2018-11-14T05:08:06.216Z,4.47
2018-11-14T05:12:09.698Z,4.07
2018-11-14T05:16:13.146Z,4.17
2018-11-14T05:20:17.787Z,4.60
2018-11-14T05:24:21.328Z,4.93
2018-11-14T05:28:24.775Z,5.00
2018-11-14T05:32:28.265Z,4.97
2018-11-14T05:36:31.758Z,5.23
2018-11-14T05:40:35.235Z,4.43
2018-11-14T05:44:38.753Z,4.47
2018-11-14T05:48:42.274Z,4.90
2018-11-14T05:52:45.688Z,5.03
2018-11-14T05:56:49.147Z,5.20
2018-11-14T06:00:52.644Z,5.47
2018-11-14T06:04:56.078Z,5.00
2018-11-14T06:08:59.588Z,5.30
2018-11-14T06:13:03.058Z,4.77
2018-11-14T06:17:06.561Z,5.50
2018-11-14T06:21:10.033Z,5.03
2018-11-14T06:25:33.317Z,4.73
2018-11-14T06:29:36.800Z,4.90
2018-11-14T06:33:40.331Z,4.67
2018-11-14T06:37:43.764Z,5.00
2018-11-14T06:41:47.304Z,4.50
2018-11-14T06:45:50.724Z,4.70
2018-11-14T06:49:54.272Z,4.23
2018-11-14T06:53:58.222Z,5.00
2018-11-14T06:58:01.702Z,4.73
2018-11-14T07:02:05.213Z,5.07
2018-11-14T07:06:08.490Z,5.60
2018-11-14T07:10:13.886Z,5.10
2018-11-14T07:14:17.349Z,5.40
2018-11-14T07:18:20.828Z,5.37
2018-11-14T07:22:24.309Z,5.77
2018-11-14T07:26:27.779Z,5.50
2018-11-14T07:30:31.745Z,4.77
2018-11-14T07:34:35.259Z,4.80
2018-11-14T07:38:46.646Z,4.70
2018-11-14T07:42:50.127Z,4.70
2018-11-14T07:46:53.590Z,4.57
2018-11-14T07:50:57.118Z,4.20
2018-11-14T07:55:00.601Z,4.47
2018-11-14T07:59:04.094Z,3.93
2018-11-14T08:03:07.608Z,3.90
2018-11-14T08:07:11.119Z,3.73
2018-11-14T08:11:14.599Z,3.57
2018-11-14T08:15:18.131Z,3.73
2018-11-14T08:19:21.623Z,3.63
2018-11-14T08:23:25.089Z,3.30
2018-11-14T08:27:28.596Z,3.23
2018-11-14T08:31:32.025Z,4.00
2018-11-14T08:35:35.497Z,3.70
2018-11-14T08:39:39.028Z,3.63
2018-11-14T08:43:42.469Z,3.50
2018-11-14T08:47:45.942Z,3.40
2018-11-14T08:51:49.404Z,3.73
2018-11-14T08:55:52.908Z,3.40
2018-11-14T08:59:56.388Z,3.30
2018-11-14T09:03:59.863Z,3.50
2018-11-14T09:08:03.831Z,3.40
2018-11-14T09:12:07.669Z,3.30
2018-11-14T09:16:11.155Z,3.40
2018-11-14T09:20:15.891Z,3.93
2018-11-14T09:24:19.423Z,3.30
2018-11-14T09:28:22.951Z,3.33
2018-11-14T09:32:26.380Z,3.27
2018-11-14T09:36:29.852Z,2.90
2018-11-14T09:40:33.266Z,2.70
2018-11-14T09:44:37.243Z,3.10
2018-11-14T09:48:40.587Z,2.80
2018-11-14T09:52:45.319Z,2.87
2018-11-14T09:56:48.903Z,2.80
2018-11-14T10:00:52.379Z,3.10
2018-11-14T10:04:55.848Z,3.03
2018-11-14T10:08:59.393Z,2.70
2018-11-14T10:13:03.696Z,2.73
2018-11-14T10:17:07.432Z,2.83
2018-11-14T10:21:11.043Z,2.80
2018-11-14T10:25:15.295Z,2.60
2018-11-14T10:29:19.753Z,3.03
2018-11-14T10:33:23.530Z,3.47
2018-11-14T10:37:27.674Z,3.10
2018-11-14T10:41:31.997Z,4.03
2018-11-14T10:45:35.470Z,3.30
2018-11-14T10:49:38.954Z,3.27
2018-11-14T10:53:42.475Z,3.60
2018-11-14T10:57:45.994Z,3.60
2018-11-14T11:01:54.728Z,3.60
2018-11-14T11:06:03.773Z,3.50
2018-11-14T11:10:12.419Z,3.73
2018-11-14T11:14:21.081Z,3.30
2018-11-14T11:18:25.966Z,4.00
2018-11-14T11:22:29.497Z,4.13
2018-11-14T11:26:32.925Z,4.40
2018-11-14T11:30:36.792Z,3.33
2018-11-14T11:34:40.226Z,4.17
2018-11-14T11:38:43.738Z,3.83
2018-11-14T11:42:47.271Z,3.33
2018-11-14T11:46:50.785Z,3.97
2018-11-14T11:50:54.418Z,3.90
2018-11-14T11:54:57.932Z,3.83
2018-11-14T11:59:02.036Z,3.80
2018-11-14T12:03:05.601Z,4.23
2018-11-14T12:07:09.061Z,4.27
2018-11-14T12:11:12.548Z,3.97
2018-11-14T12:15:16.061Z,3.73
2018-11-14T12:19:19.568Z,3.90
2018-11-14T12:23:22.998Z,3.53
2018-11-14T12:27:26.491Z,3.50
2018-11-14T12:31:29.995Z,3.13
2018-11-14T12:35:33.515Z,2.90
2018-11-14T12:39:37.088Z,2.53
2018-11-14T12:43:40.591Z,2.80
2018-11-14T12:47:44.116Z,2.53
2018-11-14T12:51:47.606Z,2.40
2018-11-14T12:55:51.109Z,2.40
2018-11-14T12:59:54.758Z,2.17
2018-11-14T13:03:58.373Z,2.40
2018-11-14T13:08:01.857Z,2.10
2018-11-14T13:12:05.565Z,2.13
2018-11-14T13:16:09.232Z,3.20
2018-11-14T13:20:16.809Z,2.97
2018-11-14T13:24:20.297Z,2.03
2018-11-14T13:28:23.810Z,3.33
2018-11-14T13:32:27.313Z,3.07
2018-11-14T13:36:31.210Z,3.03
2018-11-14T13:40:34.853Z,3.20
2018-11-14T13:44:38.702Z,3.10
2018-11-14T13:48:42.284Z,2.80
2018-11-14T13:52:45.907Z,3.17
2018-11-14T13:56:49.418Z,2.90
2018-11-14T14:00:53.824Z,2.90
2018-11-14T14:04:57.342Z,2.77
2018-11-14T14:09:00.836Z,3.17
2018-11-14T14:13:05.104Z,2.70
2018-11-14T14:17:08.639Z,2.73
2018-11-14T14:21:12.232Z,2.60
2018-11-14T14:25:16.826Z,2.73
2018-11-14T14:29:20.645Z,2.40
2018-11-14T14:33:24.180Z,2.40
2018-11-14T14:37:27.709Z,2.57
2018-11-14T14:41:31.176Z,2.80
2018-11-14T14:45:35.318Z,2.63
2018-11-14T14:49:38.813Z,2.30
2018-11-14T14:53:42.261Z,2.50
2018-11-14T14:57:46.436Z,2.93
2018-11-14T15:01:49.907Z,2.83
2018-11-14T15:05:53.493Z,2.57
2018-11-14T15:09:57.034Z,3.00
2018-11-14T15:14:00.534Z,2.83
2018-11-14T15:18:04.113Z,2.43
2018-11-14T15:22:07.638Z,2.83
2018-11-14T15:26:11.218Z,2.30
2018-11-14T15:30:18.517Z,3.17
2018-11-14T15:34:22.081Z,3.33
2018-11-14T15:38:25.716Z,3.13
2018-11-14T15:42:29.426Z,2.83
2018-11-14T15:46:33.015Z,2.93
2018-11-14T15:50:36.625Z,3.20
2018-11-14T15:54:40.189Z,3.17
2018-11-14T15:58:43.847Z,3.30
2018-11-14T16:02:47.352Z,4.50
2018-11-14T16:06:51.109Z,4.33
2018-11-14T16:10:54.985Z,4.80
2018-11-14T16:14:58.543Z,3.93
2018-11-14T16:19:02.103Z,3.70
2018-11-14T16:23:05.762Z,3.40
2018-11-14T16:27:09.199Z,3.50
2018-11-14T16:31:12.790Z,3.60
2018-11-14T16:35:16.298Z,3.40
2018-11-14T16:39:19.856Z,3.17
2018-11-14T16:43:23.365Z,3.57
2018-11-14T16:47:27.030Z,3.97
2018-11-14T16:51:30.538Z,3.60
2018-11-14T16:55:34.372Z,4.70
2018-11-14T16:59:37.859Z,4.73
2018-11-14T17:03:41.441Z,5.30
2018-11-14T17:07:44.828Z,4.53
2018-11-14T17:11:48.342Z,4.77
2018-11-14T17:15:51.835Z,5.33
2018-11-14T17:19:55.313Z,5.47
2018-11-14T17:23:58.830Z,5.27
2018-11-14T17:28:02.333Z,4.87
2018-11-14T17:32:06.049Z,4.70
2018-11-14T17:36:09.899Z,4.53
2018-11-14T17:40:15.477Z,4.60
2018-11-14T17:44:18.990Z,4.67
2018-11-14T17:48:22.540Z,4.30
2018-11-14T17:52:25.002Z,4.00
2018-11-14T17:56:28.523Z,4.60
2018-11-14T18:00:33.133Z,4.60
2018-11-14T18:04:36.590Z,5.23
2018-11-14T18:08:40.329Z,5.00
2018-11-14T18:12:44.641Z,4.90
2018-11-14T18:16:48.306Z,4.97
2018-11-14T18:20:51.803Z,5.33
2018-11-14T18:24:55.824Z,5.60
2018-11-14T18:28:59.413Z,6.03
2018-11-14T18:33:03.456Z,5.60
2018-11-14T18:37:06.961Z,5.87
2018-11-14T18:41:10.478Z,5.20
2018-11-14T18:45:26.798Z,6.13
2018-11-14T18:49:30.215Z,6.00
2018-11-14T18:53:33.675Z,5.00
2018-11-14T18:57:37.278Z,4.93
2018-11-14T19:01:40.710Z,5.10
2018-11-14T19:05:44.206Z,6.83
2018-11-14T19:09:47.786Z,6.00
2018-11-14T19:13:52.938Z,6.33
2018-11-14T19:17:56.825Z,6.83
2018-11-14T19:22:00.298Z,7.33
2018-11-14T19:26:03.794Z,6.30
2018-11-14T19:30:09.613Z,6.73
2018-11-14T19:34:13.212Z,5.63
2018-11-14T19:38:16.723Z,5.60
2018-11-14T19:42:20.224Z,5.77
2018-11-14T19:46:23.717Z,5.67
2018-11-14T19:50:27.418Z,6.13
2018-11-14T19:54:30.947Z,5.43
2018-11-14T19:58:34.385Z,5.97
2018-11-14T20:02:37.859Z,5.80
2018-11-14T20:06:41.573Z,6.27
2018-11-14T20:10:45.052Z,6.40
2018-11-14T20:14:48.541Z,5.27
2018-11-14T20:18:52.051Z,4.87
2018-11-14T20:22:55.530Z,5.57
2018-11-14T20:26:59.084Z,5.07
2018-11-14T20:31:02.550Z,5.20
2018-11-14T20:35:06.819Z,5.57
2018-11-14T20:39:11.793Z,5.33
2018-11-14T20:43:15.273Z,5.70
2018-11-14T20:47:18.738Z,5.70
2018-11-14T20:51:22.215Z,5.90
2018-11-14T20:55:25.821Z,5.37
2018-11-14T20:59:29.357Z,5.70
2018-11-14T21:03:32.818Z,5.47
2018-11-14T21:07:36.359Z,5.73
2018-11-14T21:11:39.818Z,5.33
2018-11-14T21:15:43.440Z,5.47
2018-11-14T21:19:46.863Z,5.47
2018-11-14T21:23:50.324Z,5.23
2018-11-14T21:27:54.345Z,5.17
2018-11-14T21:31:57.844Z,5.87
2018-11-14T21:36:01.285Z,5.13
2018-11-14T21:40:06.096Z,5.20
2018-11-14T21:44:09.537Z,5.13
2018-11-14T21:48:14.301Z,5.40
2018-11-14T21:52:18.113Z,5.90
2018-11-14T21:56:21.891Z,5.90
2018-11-14T22:00:30.619Z,6.20
2018-11-14T22:04:34.086Z,5.10
2018-11-14T22:08:37.542Z,5.33
2018-11-14T22:12:41.548Z,5.50
2018-11-14T22:16:45.078Z,5.10
2018-11-14T22:20:48.601Z,6.20
2018-11-14T22:24:52.082Z,5.43
2018-11-14T22:28:55.543Z,5.33
2018-11-14T22:33:00.126Z,5.23
2018-11-14T22:37:03.724Z,5.70
2018-11-14T22:41:07.191Z,5.67
2018-11-14T22:45:12.994Z,5.20
2018-11-14T22:49:16.426Z,5.57
2018-11-14T22:53:19.885Z,5.10
2018-11-14T22:57:23.352Z,5.97
2018-11-14T23:01:26.826Z,5.47
2018-11-14T23:05:30.399Z,5.67
2018-11-14T23:09:33.875Z,5.30
2018-11-14T23:13:37.376Z,5.50
2018-11-14T23:17:40.811Z,6.03
2018-11-14T23:21:44.341Z,5.90
2018-11-14T23:25:47.841Z,6.73
2018-11-14T23:29:51.303Z,5.50
2018-11-14T23:33:54.788Z,6.20
2018-11-14T23:38:02.526Z,5.47
2018-11-14T23:42:06.058Z,5.13
2018-11-14T23:46:09.590Z,6.40
2018-11-14T23:50:15.555Z,6.07
2018-11-14T23:54:19.206Z,5.80
2018-11-14T23:58:22.703Z,5.87
